createdAt,value
2018-02-19T00:02:07.554Z,91.10
2018-02-19T00:04:35.075Z,90.50
2018-02-19T00:07:02.595Z,90.80
2018-02-19T00:09:30.086Z,90.70
2018-02-19T00:11:57.593Z,90.90
2018-02-19T00:14:25.255Z,90.80
2018-02-19T00:16:52.750Z,90.50
2018-02-19T00:19:20.252Z,90.50
2018-02-19T00:21:47.753Z,90.60
2018-02-19T00:24:15.337Z,90.60
2018-02-19T00:26:42.857Z,90.60
2018-02-19T00:29:10.376Z,90.50
2018-02-19T00:31:37.941Z,90.60
2018-02-19T00:34:05.484Z,90.80
2018-02-19T00:36:32.993Z,90.70
2018-02-19T00:39:00.522Z,90.90
2018-02-19T00:41:28.024Z,90.90
2018-02-19T00:43:55.539Z,91.00
2018-02-19T00:46:23.023Z,90.80
2018-02-19T00:48:50.554Z,90.70
2018-02-19T00:51:18.055Z,90.80
2018-02-19T00:53:47.087Z,90.80
2018-02-19T00:56:14.624Z,90.80
2018-02-19T00:58:42.902Z,90.50
2018-02-19T01:01:10.449Z,90.50
2018-02-19T01:03:37.944Z,90.60
2018-02-19T01:06:06.214Z,90.70
2018-02-19T01:08:33.767Z,90.70
2018-02-19T01:11:01.336Z,90.70
2018-02-19T01:13:29.615Z,90.70
2018-02-19T01:15:57.950Z,90.80
2018-02-19T01:18:25.456Z,90.80
2018-02-19T01:20:53.715Z,90.70
2018-02-19T01:23:21.224Z,90.70
2018-02-19T01:25:48.731Z,90.60
2018-02-19T01:28:16.242Z,90.60
2018-02-19T01:30:43.735Z,90.80
2018-02-19T01:33:12.500Z,90.50
2018-02-19T01:35:39.985Z,90.60
2018-02-19T01:38:07.505Z,90.80
2018-02-19T01:40:35.001Z,90.80
2018-02-19T01:43:02.525Z,90.80
2018-02-19T01:45:30.044Z,90.90
2018-02-19T01:47:57.562Z,90.90
2018-02-19T01:50:25.087Z,91.10
2018-02-19T01:52:52.602Z,91.20
2018-02-19T01:55:20.144Z,91.30
2018-02-19T01:57:47.640Z,91.00
2018-02-19T02:00:15.204Z,91.10
2018-02-19T02:02:42.728Z,91.20
2018-02-19T02:05:10.220Z,91.20
2018-02-19T02:07:38.509Z,91.60
2018-02-19T02:10:06.010Z,91.50
2018-02-19T02:12:33.529Z,91.20
2018-02-19T02:15:01.818Z,91.20
2018-02-19T02:17:29.348Z,91.40
2018-02-19T02:19:56.856Z,91.10
2018-02-19T02:22:24.361Z,91.10
2018-02-19T02:24:51.900Z,91.00
2018-02-19T02:27:19.449Z,91.20
2018-02-19T02:29:46.957Z,91.00
2018-02-19T02:32:14.454Z,90.90
2018-02-19T02:34:41.955Z,90.90
2018-02-19T02:37:09.460Z,91.30
2018-02-19T02:39:36.979Z,91.40
2018-02-19T02:42:04.531Z,91.50
2018-02-19T02:44:32.034Z,91.60
2018-02-19T02:47:00.310Z,91.50
2018-02-19T02:49:27.797Z,91.50
2018-02-19T02:51:55.299Z,91.60
2018-02-19T02:54:22.840Z,91.60
2018-02-19T02:56:50.353Z,91.50
2018-02-19T02:59:17.899Z,91.60
2018-02-19T03:01:45.430Z,91.70
2018-02-19T03:04:12.945Z,91.60
2018-02-19T03:06:40.436Z,91.50
2018-02-19T03:09:07.953Z,91.40
2018-02-19T03:11:36.223Z,91.40
2018-02-19T03:14:03.757Z,91.40
2018-02-19T03:16:31.258Z,91.40
2018-02-19T03:18:58.816Z,91.40
2018-02-19T03:21:26.334Z,91.40
2018-02-19T03:23:53.859Z,91.50
2018-02-19T03:26:21.364Z,91.50
2018-02-19T03:28:48.880Z,91.50
2018-02-19T03:31:16.388Z,91.60
2018-02-19T03:33:43.893Z,91.60
2018-02-19T03:36:11.412Z,91.50
2018-02-19T03:38:39.694Z,91.60
2018-02-19T03:41:07.212Z,91.50
2018-02-19T03:43:34.727Z,91.60
2018-02-19T03:46:02.248Z,91.60
2018-02-19T03:48:29.804Z,91.70
2018-02-19T03:50:57.318Z,91.60
2018-02-19T03:53:24.836Z,91.60
2018-02-19T03:55:52.367Z,91.60
2018-02-19T03:58:19.895Z,91.70
2018-02-19T04:00:47.417Z,91.80
2018-02-19T04:03:14.926Z,91.80
2018-02-19T04:05:42.441Z,91.80
2018-02-19T04:08:09.934Z,91.90
2018-02-19T04:10:37.437Z,91.80
2018-02-19T04:13:04.966Z,91.80
2018-02-19T04:15:32.475Z,92.00
2018-02-19T04:17:59.971Z,91.90
2018-02-19T04:20:28.245Z,91.90
2018-02-19T04:22:55.749Z,91.90
2018-02-19T04:25:23.286Z,92.00
2018-02-19T04:27:50.808Z,91.90
2018-02-19T04:30:19.097Z,91.90
2018-02-19T04:32:46.653Z,91.90
2018-02-19T04:35:14.912Z,91.90
2018-02-19T04:37:43.185Z,92.00
2018-02-19T04:40:10.763Z,92.00
2018-02-19T04:42:38.287Z,92.00
2018-02-19T04:45:24.233Z,92.20
2018-02-19T04:47:51.764Z,92.20
2018-02-19T04:50:19.256Z,92.20
2018-02-19T04:52:46.823Z,92.30
2018-02-19T04:55:14.315Z,92.20
2018-02-19T04:57:41.856Z,92.20
2018-02-19T05:00:09.376Z,92.10
2018-02-19T05:02:37.678Z,92.00
2018-02-19T05:05:05.969Z,92.00
2018-02-19T05:07:33.473Z,91.90
2018-02-19T05:10:00.979Z,92.00
2018-02-19T05:12:28.529Z,92.10
2018-02-19T05:14:56.042Z,92.10
2018-02-19T05:17:23.581Z,92.20
2018-02-19T05:19:51.109Z,92.20
2018-02-19T05:22:19.388Z,92.30
2018-02-19T05:24:46.877Z,92.30
2018-02-19T05:27:14.390Z,92.30
2018-02-19T05:29:42.678Z,92.60
2018-02-19T05:32:10.187Z,92.50
2018-02-19T05:34:37.685Z,92.70
2018-02-19T05:37:05.244Z,92.60
2018-02-19T05:39:32.802Z,92.50
2018-02-19T05:42:00.327Z,92.50
2018-02-19T05:44:27.849Z,92.60
2018-02-19T05:46:55.362Z,92.70
2018-02-19T05:49:22.864Z,92.70
2018-02-19T05:51:50.369Z,92.70
2018-02-19T05:54:17.909Z,92.90
2018-02-19T05:56:45.444Z,92.90
2018-02-19T05:59:13.729Z,92.80
2018-02-19T06:01:41.250Z,92.80
2018-02-19T06:04:08.749Z,92.40
2018-02-19T06:06:36.258Z,92.60
2018-02-19T06:09:03.783Z,92.20
2018-02-19T06:11:31.291Z,92.30
2018-02-19T06:13:58.820Z,92.20
2018-02-19T06:16:26.332Z,92.40
2018-02-19T06:18:54.607Z,92.50
2018-02-19T06:21:22.126Z,92.50
2018-02-19T06:23:49.670Z,92.50
2018-02-19T06:26:17.176Z,92.50
2018-02-19T06:28:44.693Z,92.40
2018-02-19T06:31:12.217Z,92.40
2018-02-19T06:33:39.711Z,92.20
2018-02-19T06:36:08.177Z,92.30
2018-02-19T06:38:35.754Z,92.40
2018-02-19T06:41:03.261Z,92.20
2018-02-19T06:43:30.757Z,92.10
2018-02-19T06:45:58.295Z,92.20
2018-02-19T06:48:26.564Z,92.20
2018-02-19T06:50:54.074Z,92.20
2018-02-19T06:53:21.601Z,92.20
2018-02-19T06:55:49.864Z,92.30
2018-02-19T06:58:17.375Z,92.30
2018-02-19T07:00:44.886Z,91.90
2018-02-19T07:03:13.221Z,91.70
2018-02-19T07:05:40.724Z,91.70
2018-02-19T07:08:09.003Z,91.70
2018-02-19T07:10:36.534Z,91.60
2018-02-19T07:13:04.024Z,91.90
2018-02-19T07:15:32.300Z,91.70
2018-02-19T07:17:59.864Z,91.60
2018-02-19T07:20:30.222Z,91.50
2018-02-19T07:22:57.725Z,91.60
2018-02-19T07:25:25.221Z,91.60
2018-02-19T07:27:52.750Z,91.60
2018-02-19T07:30:20.285Z,91.50
2018-02-19T07:32:47.790Z,91.70
2018-02-19T07:35:15.364Z,92.00
2018-02-19T07:37:42.882Z,91.50
2018-02-19T07:40:10.406Z,91.30
2018-02-19T07:42:37.932Z,91.40
2018-02-19T07:45:05.442Z,91.40
2018-02-19T07:47:32.963Z,91.40
2018-02-19T07:50:00.528Z,91.60
2018-02-19T07:52:28.829Z,91.60
2018-02-19T07:54:56.328Z,91.50
2018-02-19T07:57:23.865Z,91.50
2018-02-19T07:59:51.388Z,91.40
2018-02-19T08:02:18.913Z,91.40
2018-02-19T08:04:46.435Z,91.40
2018-02-19T08:07:13.946Z,91.50
2018-02-19T08:09:42.234Z,91.50
2018-02-19T08:12:09.769Z,91.50
2018-02-19T08:14:37.322Z,91.40
2018-02-19T08:17:04.831Z,91.30
2018-02-19T08:19:32.334Z,91.30
2018-02-19T08:21:59.843Z,91.40
2018-02-19T08:24:27.380Z,91.40
2018-02-19T08:26:55.671Z,91.30
2018-02-19T08:29:23.173Z,91.20
2018-02-19T08:31:50.687Z,91.30
2018-02-19T08:34:18.967Z,91.30
2018-02-19T08:36:46.496Z,91.30
2018-02-19T08:39:14.024Z,91.40
2018-02-19T08:41:41.541Z,91.40
2018-02-19T08:44:09.878Z,91.20
2018-02-19T08:46:37.397Z,91.20
2018-02-19T08:49:04.947Z,91.20
2018-02-19T08:51:32.492Z,91.30
2018-02-19T08:54:00.011Z,91.10
2018-02-19T08:56:27.529Z,91.20
2018-02-19T08:58:55.817Z,91.10
2018-02-19T09:01:23.328Z,91.20
2018-02-19T09:03:50.862Z,91.00
2018-02-19T09:06:18.385Z,91.10
2018-02-19T09:08:45.893Z,91.10
2018-02-19T09:11:13.449Z,91.10
2018-02-19T09:13:40.951Z,91.40
2018-02-19T09:16:08.474Z,91.20
2018-02-19T09:18:35.993Z,90.90
2018-02-19T09:21:03.512Z,90.80
2018-02-19T09:23:31.150Z,91.20
2018-02-19T09:25:58.711Z,90.90
2018-02-19T09:28:26.244Z,90.60
2018-02-19T09:30:53.758Z,90.60
2018-02-19T09:33:21.281Z,90.70
2018-02-19T09:35:48.881Z,90.50
2018-02-19T09:38:16.436Z,90.50
2018-02-19T09:40:43.991Z,90.60
2018-02-19T09:43:11.486Z,90.60
2018-02-19T09:45:39.057Z,90.60
2018-02-19T09:48:07.415Z,90.40
2018-02-19T09:50:34.948Z,90.40
2018-02-19T09:53:02.516Z,90.60
2018-02-19T09:55:30.060Z,90.30
2018-02-19T09:57:57.565Z,90.10
2018-02-19T10:00:25.907Z,90.10
2018-02-19T10:02:53.423Z,90.00
2018-02-19T10:05:21.726Z,90.10
2018-02-19T10:07:49.263Z,90.10
2018-02-19T10:10:16.802Z,90.10
2018-02-19T10:12:44.344Z,89.60
2018-02-19T10:15:11.958Z,89.30
2018-02-19T10:17:39.605Z,89.60
2018-02-19T10:20:07.108Z,89.90
2018-02-19T10:22:34.671Z,89.20
2018-02-19T10:25:02.194Z,89.00
2018-02-19T10:27:29.698Z,89.30
2018-02-19T10:29:57.279Z,89.00
2018-02-19T10:32:24.850Z,88.50
2018-02-19T10:34:53.149Z,88.60
2018-02-19T10:37:20.739Z,88.60
2018-02-19T10:39:48.244Z,89.10
2018-02-19T10:42:15.821Z,88.80
2018-02-19T10:44:44.158Z,88.80
2018-02-19T10:47:11.732Z,88.80
2018-02-19T10:49:39.395Z,88.10
2018-02-19T10:52:06.934Z,88.70
2018-02-19T10:54:34.491Z,87.70
2018-02-19T10:57:02.041Z,86.70
2018-02-19T10:59:29.559Z,86.50
2018-02-19T11:01:57.905Z,88.00
2018-02-19T11:04:25.452Z,87.90
2018-02-19T11:06:52.984Z,86.70
2018-02-19T11:09:20.491Z,86.80
2018-02-19T11:11:47.990Z,87.00
2018-02-19T11:14:15.528Z,86.80
2018-02-19T11:16:43.090Z,86.90
2018-02-19T11:19:10.625Z,86.50
2018-02-19T11:21:38.164Z,86.40
2018-02-19T11:24:05.741Z,86.50
2018-02-19T11:26:33.256Z,86.70
2018-02-19T11:29:01.607Z,86.00
2018-02-19T11:31:29.155Z,86.00
2018-02-19T11:33:56.701Z,85.10
2018-02-19T11:36:24.256Z,84.70
2018-02-19T11:38:55.447Z,84.60
2018-02-19T11:41:20.028Z,85.10
2018-02-19T11:43:47.557Z,84.40
2018-02-19T11:46:15.164Z,85.10
2018-02-19T11:48:43.449Z,84.60
2018-02-19T11:51:10.976Z,84.60
2018-02-19T11:53:40.346Z,84.80
2018-02-19T11:56:07.995Z,84.20
2018-02-19T11:58:35.518Z,84.40
2018-02-19T12:01:03.028Z,85.00
2018-02-19T12:03:30.588Z,83.70
2018-02-19T12:05:58.127Z,83.90
2018-02-19T12:08:25.648Z,84.40
2018-02-19T12:10:53.246Z,84.40
2018-02-19T12:13:21.525Z,82.90
2018-02-19T12:15:49.049Z,82.80
2018-02-19T12:18:16.583Z,82.60
2018-02-19T12:20:44.087Z,83.10
2018-02-19T12:23:11.591Z,83.50
2018-02-19T12:25:39.117Z,82.90
2018-02-19T12:28:06.766Z,83.00
2018-02-19T12:30:34.289Z,82.80
2018-02-19T12:33:01.879Z,82.70
2018-02-19T12:35:29.553Z,82.80
2018-02-19T12:37:57.085Z,83.30
2018-02-19T12:40:24.637Z,82.10
2018-02-19T12:42:52.167Z,81.80
2018-02-19T12:45:19.900Z,82.20
2018-02-19T12:47:47.427Z,81.80
2018-02-19T12:50:14.968Z,81.90
2018-02-19T12:52:42.488Z,81.50
2018-02-19T12:55:10.769Z,82.00
2018-02-19T12:57:39.420Z,82.00
2018-02-19T13:00:07.404Z,81.20
2018-02-19T13:02:34.927Z,80.60
2018-02-19T13:05:02.465Z,81.40
2018-02-19T13:07:29.977Z,80.50
2018-02-19T13:09:57.509Z,80.20
2018-02-19T13:12:25.047Z,80.30
2018-02-19T13:14:52.553Z,79.00
2018-02-19T13:17:20.090Z,79.70
2018-02-19T13:19:47.612Z,79.30
2018-02-19T13:22:15.902Z,79.30
2018-02-19T13:24:43.425Z,79.30
2018-02-19T13:27:11.169Z,79.80
2018-02-19T13:29:38.730Z,79.70
2018-02-19T13:32:06.245Z,79.80
2018-02-19T13:34:33.806Z,79.80
2018-02-19T13:37:01.295Z,78.90
2018-02-19T13:39:28.810Z,79.40
2018-02-19T13:41:57.133Z,79.80
2018-02-19T13:44:24.666Z,79.80
2018-02-19T13:46:52.941Z,80.10
2018-02-19T13:49:20.469Z,80.00
2018-02-19T13:51:47.977Z,81.40
2018-02-19T13:54:15.478Z,80.50
2018-02-19T13:56:43.064Z,81.60
2018-02-19T13:59:10.662Z,79.80
2018-02-19T14:01:38.224Z,80.30
2018-02-19T14:04:05.750Z,80.50
2018-02-19T14:06:33.245Z,80.50
2018-02-19T14:09:00.796Z,79.80
2018-02-19T14:11:28.323Z,80.20
2018-02-19T14:13:55.850Z,79.30
2018-02-19T14:16:23.349Z,79.40
2018-02-19T14:18:50.885Z,80.60
2018-02-19T14:21:18.417Z,79.40
2018-02-19T14:23:45.930Z,79.10
2018-02-19T14:26:13.439Z,79.50
2018-02-19T14:28:40.949Z,79.60
2018-02-19T14:31:08.458Z,80.20
2018-02-19T14:33:36.052Z,79.30
2018-02-19T14:36:03.574Z,79.20
2018-02-19T14:38:31.095Z,78.70
2018-02-19T14:40:58.607Z,78.70
2018-02-19T14:43:26.107Z,78.30
2018-02-19T14:45:54.376Z,78.20
2018-02-19T14:48:21.908Z,78.20
2018-02-19T14:50:49.417Z,77.80
2018-02-19T14:53:18.656Z,77.90
2018-02-19T14:55:46.192Z,77.90
2018-02-19T14:58:13.687Z,77.40
2018-02-19T15:00:41.225Z,78.30
2018-02-19T15:03:08.749Z,77.90
2018-02-19T15:05:37.027Z,78.40
2018-02-19T15:08:04.542Z,78.40
2018-02-19T15:10:32.088Z,78.40
2018-02-19T15:12:59.661Z,78.90
2018-02-19T15:15:27.254Z,78.60
2018-02-19T15:17:54.825Z,78.80
2018-02-19T15:20:23.114Z,78.60
2018-02-19T15:22:50.658Z,78.40
2018-02-19T15:25:18.187Z,78.40
2018-02-19T15:27:45.708Z,79.30
2018-02-19T15:30:14.013Z,80.70
2018-02-19T15:32:41.533Z,81.00
2018-02-19T15:35:09.045Z,78.60
2018-02-19T15:37:36.553Z,79.10
2018-02-19T15:40:04.140Z,79.30
2018-02-19T15:42:33.803Z,80.00
2018-02-19T15:45:01.359Z,80.30
2018-02-19T15:47:29.719Z,80.40
2018-02-19T15:49:57.295Z,80.50
2018-02-19T15:52:24.820Z,80.40
2018-02-19T15:54:52.354Z,83.70
2018-02-19T15:57:19.903Z,81.20
2018-02-19T15:59:49.342Z,80.50
2018-02-19T16:02:16.888Z,81.10
2018-02-19T16:04:44.430Z,81.30
2018-02-19T16:07:12.011Z,81.60
2018-02-19T16:09:40.294Z,82.30
2018-02-19T16:12:07.825Z,81.70
2018-02-19T16:14:36.149Z,81.70
2018-02-19T16:17:04.514Z,81.50
2018-02-19T16:19:32.087Z,81.60
2018-02-19T16:21:59.913Z,82.20
2018-02-19T16:24:28.214Z,82.10
2018-02-19T16:26:55.775Z,82.10
2018-02-19T16:29:23.585Z,82.00
2018-02-19T16:31:51.114Z,81.90
2018-02-19T16:34:18.705Z,82.30
2018-02-19T16:36:46.212Z,81.80
2018-02-19T16:39:14.512Z,81.70
2018-02-19T16:41:42.025Z,81.70
2018-02-19T16:44:09.551Z,82.30
2018-02-19T16:46:37.045Z,81.90
2018-02-19T16:49:04.547Z,82.10
2018-02-19T16:51:32.067Z,82.50
2018-02-19T16:53:59.621Z,82.30
2018-02-19T16:56:27.140Z,82.30
2018-02-19T16:58:54.641Z,81.90
2018-02-19T17:01:22.201Z,81.90
2018-02-19T17:03:49.674Z,81.80
2018-02-19T17:06:17.236Z,82.40
2018-02-19T17:08:45.723Z,82.30
2018-02-19T17:11:13.270Z,82.30
2018-02-19T17:13:40.768Z,82.20
2018-02-19T17:16:08.277Z,82.10
2018-02-19T17:18:35.786Z,82.20
2018-02-19T17:21:03.274Z,82.30
2018-02-19T17:23:30.766Z,82.50
2018-02-19T17:25:58.295Z,82.10
2018-02-19T17:28:25.780Z,82.40
2018-02-19T17:30:53.298Z,82.30
2018-02-19T17:33:20.810Z,82.60
2018-02-19T17:35:51.789Z,82.80
2018-02-19T17:38:19.308Z,82.60
2018-02-19T17:40:46.825Z,82.50
2018-02-19T17:43:14.321Z,82.90
2018-02-19T17:45:41.810Z,82.90
2018-02-19T17:48:10.070Z,82.80
2018-02-19T17:50:37.594Z,82.80
2018-02-19T17:53:05.117Z,83.40
2018-02-19T17:55:32.666Z,82.80
2018-02-19T17:58:00.206Z,83.00
2018-02-19T18:00:27.746Z,83.00
2018-02-19T18:02:55.254Z,83.10
2018-02-19T18:05:23.543Z,83.30
2018-02-19T18:07:51.092Z,83.30
2018-02-19T18:10:18.598Z,83.50
2018-02-19T18:12:46.118Z,83.40
2018-02-19T18:15:13.682Z,83.30
2018-02-19T18:17:42.070Z,83.30
2018-02-19T18:20:10.443Z,83.00
2018-02-19T18:22:38.781Z,82.80
2018-02-19T18:25:06.310Z,82.80
2018-02-19T18:27:33.826Z,83.10
2018-02-19T18:30:02.272Z,83.00
2018-02-19T18:32:29.781Z,83.00
2018-02-19T18:34:57.286Z,83.10
2018-02-19T18:37:25.008Z,83.20
2018-02-19T18:39:52.505Z,84.60
2018-02-19T18:42:20.028Z,83.90
2018-02-19T18:44:47.566Z,83.90
2018-02-19T18:47:15.106Z,83.60
2018-02-19T18:49:44.230Z,83.60
2018-02-19T18:52:12.570Z,83.60
2018-02-19T18:54:40.062Z,83.60
2018-02-19T18:57:08.423Z,83.80
2018-02-19T18:59:35.917Z,83.80
2018-02-19T19:02:04.222Z,84.60
2018-02-19T19:04:31.735Z,84.60
2018-02-19T19:06:59.262Z,84.30
2018-02-19T19:09:38.674Z,84.00
2018-02-19T19:12:06.205Z,83.90
2018-02-19T19:14:33.700Z,83.90
2018-02-19T19:17:01.229Z,83.70
2018-02-19T19:19:28.721Z,84.00
2018-02-19T19:21:56.975Z,84.40
2018-02-19T19:24:25.291Z,84.60
2018-02-19T19:26:52.839Z,84.60
2018-02-19T19:29:20.339Z,84.50
2018-02-19T19:31:47.885Z,84.80
2018-02-19T19:34:15.439Z,85.00
2018-02-19T19:36:42.945Z,85.00
2018-02-19T19:39:10.449Z,85.00
2018-02-19T19:41:37.970Z,85.20
2018-02-19T19:44:06.283Z,85.30
2018-02-19T19:46:33.896Z,85.30
2018-02-19T19:49:02.233Z,85.60
2018-02-19T19:51:29.740Z,85.50
2018-02-19T19:53:58.000Z,85.80
2018-02-19T19:56:25.524Z,85.70
2018-02-19T19:58:53.029Z,86.00
2018-02-19T20:01:20.534Z,85.80
2018-02-19T20:03:48.095Z,86.70
2018-02-19T20:06:15.622Z,86.10
2018-02-19T20:08:43.176Z,85.90
2018-02-19T20:11:11.449Z,86.60
2018-02-19T20:13:39.010Z,86.60
2018-02-19T20:16:06.525Z,86.60
2018-02-19T20:18:34.048Z,86.60
2018-02-19T20:21:02.350Z,87.50
2018-02-19T20:23:30.518Z,87.10
2018-02-19T20:25:58.058Z,86.80
2018-02-19T20:28:26.412Z,86.80
2018-02-19T20:30:54.010Z,86.80
2018-02-19T20:33:21.587Z,86.90
2018-02-19T20:35:49.266Z,87.60
2018-02-19T20:38:17.013Z,87.50
2018-02-19T20:40:44.554Z,87.40
2018-02-19T20:43:12.102Z,87.40
2018-02-19T20:45:40.464Z,87.60
2018-02-19T20:48:07.969Z,87.50
2018-02-19T20:50:35.475Z,87.70
2018-02-19T20:53:03.031Z,87.50
2018-02-19T20:55:30.543Z,88.00
2018-02-19T20:57:58.195Z,87.80
2018-02-19T21:00:26.835Z,87.80
2018-02-19T21:02:55.460Z,88.00
2018-02-19T21:05:23.030Z,88.00
2018-02-19T21:07:51.365Z,87.80
2018-02-19T21:10:18.942Z,87.70
2018-02-19T21:12:46.614Z,88.10
2018-02-19T21:15:14.227Z,88.20
2018-02-19T21:17:41.810Z,88.30
2018-02-19T21:20:10.314Z,88.20
2018-02-19T21:22:37.892Z,88.20
2018-02-19T21:25:05.428Z,88.10
2018-02-19T21:27:32.955Z,88.20
2018-02-19T21:30:00.515Z,87.90
2018-02-19T21:32:28.023Z,88.20
2018-02-19T21:34:55.591Z,88.30
2018-02-19T21:37:23.118Z,87.60
2018-02-19T21:39:50.633Z,87.70
2018-02-19T21:42:18.183Z,88.50
2018-02-19T21:44:46.471Z,88.20
2018-02-19T21:47:14.769Z,88.80
2018-02-19T21:49:43.244Z,88.40
2018-02-19T21:52:10.773Z,88.30
2018-02-19T21:54:38.278Z,88.30
2018-02-19T21:57:06.588Z,87.80
2018-02-19T21:59:34.129Z,87.80
2018-02-19T22:02:02.402Z,87.70
2018-02-19T22:04:29.934Z,87.70
2018-02-19T22:06:57.559Z,87.90
2018-02-19T22:09:25.070Z,87.50
2018-02-19T22:11:52.763Z,87.80
2018-02-19T22:14:20.283Z,87.70
2018-02-19T22:16:47.828Z,88.00
2018-02-19T22:19:15.360Z,88.10
2018-02-19T22:21:42.861Z,87.40
2018-02-19T22:24:10.403Z,87.40
2018-02-19T22:26:37.981Z,87.00
2018-02-19T22:29:06.248Z,87.50
2018-02-19T22:31:33.757Z,87.50
2018-02-19T22:34:01.300Z,87.10
2018-02-19T22:36:28.833Z,87.10
2018-02-19T22:38:57.110Z,87.60
2018-02-19T22:41:24.629Z,87.40
2018-02-19T22:43:52.131Z,87.10
2018-02-19T22:46:20.454Z,86.90
2018-02-19T22:48:47.989Z,86.90
2018-02-19T22:51:15.496Z,87.80
2018-02-19T22:53:43.035Z,86.90
2018-02-19T22:56:10.599Z,86.90
2018-02-19T22:58:38.329Z,86.40
2018-02-19T23:01:05.811Z,86.40
2018-02-19T23:03:33.344Z,86.50
2018-02-19T23:06:01.648Z,86.50
2018-02-19T23:08:29.954Z,86.90
2018-02-19T23:10:57.480Z,86.80
2018-02-19T23:13:25.092Z,87.00
2018-02-19T23:15:52.631Z,87.00
2018-02-19T23:18:20.145Z,86.70
2018-02-19T23:20:47.657Z,87.00
2018-02-19T23:23:15.152Z,86.80
2018-02-19T23:25:43.442Z,87.70
2018-02-19T23:28:10.974Z,87.60
2018-02-19T23:30:38.514Z,86.70
2018-02-19T23:33:06.023Z,87.00
2018-02-19T23:35:33.685Z,87.20
2018-02-19T23:38:01.198Z,87.00
2018-02-19T23:40:28.707Z,87.20
2018-02-19T23:42:56.240Z,87.10
2018-02-19T23:45:24.525Z,86.70
2018-02-19T23:47:52.805Z,86.80
2018-02-19T23:50:20.361Z,86.70
2018-02-19T23:52:47.858Z,86.30
2018-02-19T23:55:15.405Z,86.40
2018-02-19T23:57:42.921Z,86.50
